Latest Weather Observations for Busselton Airport

IDW60801

Issued at 5:05 pm WST Thursday 31 July 2014 (issued every 30 minutes, with the page automatically refreshed every 10 minutes)

About weather observations | Map of weather stations | Latest weather observations for WA | Other Formats
Station Details ID: 009603 Name: BUSSELTON AERO Lat: -33.69 Lon: 115.40 Height: 16.3 m
Data from the previous 72 hours. | See also: Recent months at Busselton Airport
Date/Time
WST
Temp
°C
App
Temp
°C
Dew
Point
Rel
Hum
%
Delta-T
°C
Wind Press
QNH
hPa
Press
MSL
hPa
Rain
since 9 am
mm
Dir
 
Spd
km/h
Gust
km/h
Spd
kts
Gust
kts
31/05:00pm 12.2 8.7 5.4 63 3.1 S 13 15 7 8 1027.1 1027.1 0.0
31/04:30pm 13.3 9.6 4.7 56 3.9 SSE 13 17 7 9 1027.0 - 0.0
31/04:00pm 13.8 9.5 5.2 56 4.0 S 17 20 9 11 1026.9 1026.9 0.0
31/03:30pm 13.9 9.9 5.0 55 4.1 ESE 15 19 8 10 1026.9 - 0.0
31/03:00pm 13.7 9.6 4.6 54 4.2 SSE 15 20 8 11 1027.0 1027.0 0.0
31/02:30pm 14.0 10.3 4.3 52 4.5 S 13 19 7 10 1027.0 - 0.0
31/02:00pm 13.7 9.6 4.6 54 4.2 SE 15 22 8 12 1027.0 1027.0 0.0
31/01:30pm 13.8 10.0 3.9 51 4.5 SE 13 22 7 12 1027.3 - 0.0
31/01:00pm 14.2 10.9 4.8 53 4.3 E 11 17 6 9 1027.3 1027.3 0.0
31/12:30pm 13.5 9.5 3.1 49 4.6 SSE 13 19 7 10 1027.6 - 0.0
31/12:00pm 13.7 9.5 3.8 51 4.5 SSE 15 22 8 12 1027.9 1027.9 0.0
31/11:30am 13.3 8.2 3.1 50 4.5 ESE 19 26 10 14 1028.2 - 0.0
31/11:00am 13.1 8.7 4.6 56 3.9 S 17 24 9 13 1028.4 1028.4 0.0
31/10:30am 12.4 7.8 3.9 56 3.8 SE 17 22 9 12 1028.3 - 0.0
31/10:00am 12.1 8.0 4.1 58 3.6 SSE 15 22 8 12 1028.1 1028.1 0.0
31/09:30am 11.6 8.2 3.9 59 3.4 SSE 11 15 6 8 1028.0 - 0.0
31/09:00am 11.3 7.5 3.8 60 3.3 SSE 13 17 7 9 1027.8 1027.8 0.2
31/08:30am 10.9 8.0 4.6 65 2.8 SSE 9 11 5 6 1027.6 - 0.2
31/08:00am 10.5 7.1 4.2 65 2.8 S 11 15 6 8 1027.1 1027.1 0.2
31/07:30am 10.5 6.3 4.0 64 2.9 S 15 22 8 12 1026.5 - 0.2
31/07:00am 11.0 5.8 3.8 61 3.2 S 20 28 11 15 1026.0 1026.0 0.2
31/06:30am 11.0 6.5 4.0 62 3.1 S 17 28 9 15 1025.3 - 0.2
31/06:00am 10.6 7.3 4.7 67 2.6 SSW 11 13 6 7 1024.7 1024.7 0.2
31/05:30am 10.9 6.4 4.2 63 3.0 S 17 20 9 11 1024.5 - 0.2
31/05:00am 10.8 7.1 4.5 65 2.8 S 13 17 7 9 1024.3 1024.3 0.2
31/04:30am 10.4 7.6 5.0 69 2.4 SSW 9 13 5 7 1024.1 - 0.2
31/04:00am 10.5 6.9 4.9 68 2.5 S 13 19 7 10 1024.3 1024.3 0.2
31/03:30am 10.6 7.4 5.0 68 2.5 SSW 11 15 6 8 1024.2 - 0.2
31/03:00am 10.6 6.9 4.5 66 2.7 SSW 13 19 7 10 1024.1 1024.1 0.2
31/02:30am 11.2 7.2 4.9 65 2.9 SSW 15 20 8 11 1024.1 - 0.2
31/02:00am 11.0 8.3 5.5 69 2.5 SW 9 13 5 7 1024.0 1024.0 0.2
31/01:30am 10.8 7.7 5.6 70 2.4 SSW 11 15 6 8 1023.8 - 0.2
31/01:00am 11.1 8.0 5.7 69 2.5 SSW 11 17 6 9 1023.5 1023.5 0.2
31/12:30am 11.6 8.2 5.7 67 2.7 SSW 13 17 7 9 1023.3 - 0.2
31/12:00am 11.8 7.6 5.9 67 2.7 SSW 17 24 9 13 1023.3 1023.4 0.2
 
Date/Time
WST
Temp
°C
App
Temp
°C
Dew
Point
Rel
Hum
%
Delta-T
°C
Wind Press
QNH
hPa
Press
MSL
hPa
Rain
since 9 am
mm
Dir
 
Spd
km/h
Gust
km/h
Spd
kts
Gust
kts
30/11:30pm 11.6 8.9 7.2 74 2.1 SSW 11 17 6 9 1023.2 - 0.2
30/11:00pm 12.1 8.7 7.6 74 2.2 SSW 15 19 8 10 1023.2 1023.3 0.2
30/10:30pm 12.8 8.9 8.5 75 2.1 SW 19 24 10 13 1023.0 - 0.2
30/10:00pm 12.4 10.0 10.0 85 1.2 SW 13 22 7 12 1022.4 1022.5 0.2
30/09:30pm 12.9 9.8 10.3 84 1.3 SW 17 22 9 12 1022.2 - 0.2
30/09:00pm 12.9 10.5 10.1 83 1.4 WSW 13 20 7 11 1021.8 1021.9 0.2
30/08:30pm 12.8 10.6 9.3 79 1.8 W 11 13 6 7 1021.5 - 0.0
30/08:00pm 13.0 10.7 9.1 77 2.0 W 11 15 6 8 1021.3 1021.4 0.0
30/07:30pm 13.1 10.8 9.0 76 2.1 W 11 15 6 8 1020.9 - 0.0
30/07:00pm 13.4 11.2 9.5 77 2.0 WSW 11 13 6 7 1021.1 1021.2 0.0
30/06:30pm 13.2 11.0 9.3 77 2.0 WSW 11 13 6 7 1021.0 - 0.0
30/06:00pm 13.8 11.6 9.5 75 2.2 WSW 11 15 6 8 1020.8 1020.9 0.0
30/05:30pm 14.5 10.9 9.8 73 2.4 WSW 19 26 10 14 1020.5 - 0.0
30/05:00pm 15.2 11.6 10.4 73 2.5 WSW 20 28 11 15 1020.3 1020.4 0.0
30/04:30pm 14.9 12.5 11.5 80 1.8 WSW 15 22 8 12 1020.2 - 0.0
30/04:00pm 14.7 11.4 12.7 88 1.1 SW 22 32 12 17 1020.1 1020.2 0.0
30/03:30pm 15.6 11.7 12.2 80 1.9 WSW 24 33 13 18 1019.7 - 0.0
30/03:00pm 16.9 13.1 11.0 68 3.2 WSW 22 32 12 17 1019.3 1019.4 0.0
30/02:30pm 17.2 13.1 11.3 68 3.2 W 24 37 13 20 1019.2 - 0.0
30/02:00pm 18.0 15.9 13.5 75 2.5 NW 17 28 9 15 1018.9 1019.0 0.0
30/01:30pm 16.3 13.6 13.4 83 1.6 NW 20 28 11 15 1019.1 - 0.0
30/01:00pm 15.4 12.4 12.7 84 1.5 NW 20 28 11 15 1019.3 1019.4 0.0
30/12:30pm 16.6 13.2 11.1 70 3.0 W 20 35 11 19 1019.5 - 0.0
30/12:00pm 17.9 13.5 9.0 56 4.6 WNW 22 32 12 17 1019.7 1019.8 0.0
30/11:30am 17.0 13.4 10.6 66 3.4 W 20 32 11 17 1020.1 - 0.0
30/11:00am 17.9 13.3 11.0 64 3.7 WNW 26 37 14 20 1020.2 1020.3 0.0
30/10:30am 17.2 13.2 9.2 59 4.2 WNW 20 32 11 17 1020.4 - 0.0
30/10:00am 16.8 13.6 10.0 64 3.6 WNW 17 24 9 13 1020.4 1020.5 0.0
30/09:30am 16.2 12.4 9.9 66 3.3 WNW 20 30 11 16 1020.3 - 0.0
30/09:00am 16.0 12.3 10.1 68 3.1 WNW 20 28 11 15 1020.1 1020.2 0.8
30/08:30am 15.6 13.0 9.5 67 3.2 NW 13 19 7 10 1019.8 - 0.8
30/08:00am 15.5 12.8 8.8 64 3.4 W 13 19 7 10 1020.0 1020.1 0.8
30/07:30am 15.5 12.1 9.2 66 3.2 WNW 17 22 9 12 1019.7 - 0.8
30/07:00am 15.3 13.3 10.1 71 2.7 WNW 11 17 6 9 1019.6 1019.7 0.8
30/06:30am 15.2 13.2 10.2 72 2.6 WNW 11 15 6 8 1019.7 - 0.8
30/06:00am 15.6 11.9 9.5 67 3.1 NW 19 26 10 14 1019.4 1019.5 0.8
30/05:30am 15.6 11.8 9.8 68 3.0 NW 20 30 11 16 1019.3 - 0.8
30/05:00am 15.7 11.9 8.9 64 3.5 NW 19 26 10 14 1019.3 1019.4 0.8
30/04:30am 15.5 13.1 10.1 70 2.8 WNW 13 24 7 13 1019.4 - 0.8
30/04:00am 15.6 12.8 10.0 69 2.9 W 15 20 8 11 1019.6 1019.7 0.8
30/03:30am 15.6 12.0 10.0 69 2.9 WNW 19 26 10 14 1019.7 - 0.8
30/03:00am 15.8 11.8 9.0 64 3.5 NW 20 30 11 16 1019.8 1019.9 0.8
30/02:30am 15.7 12.3 9.0 64 3.4 NW 17 22 9 12 1020.1 - 0.8
30/02:00am 15.4 13.6 11.0 75 2.3 WNW 11 13 6 7 1020.3 1020.4 0.8
30/01:30am 15.5 13.3 10.7 73 2.5 WNW 13 17 7 9 1020.4 - 0.8
30/01:00am 15.7 12.5 10.0 69 3.0 NW 17 24 9 13 1020.5 1020.6 0.8
30/12:30am 15.2 12.6 12.0 81 1.7 NNW 17 22 9 12 1020.6 - 0.8
30/12:00am 15.1 12.3 11.5 79 1.9 NW 17 22 9 12 1020.8 1020.9 0.8
 
Date/Time
WST
Temp
°C
App
Temp
°C
Dew
Point
Rel
Hum
%
Delta-T
°C
Wind Press
QNH
hPa
Press
MSL
hPa
Rain
since 9 am
mm
Dir
 
Spd
km/h
Gust
km/h
Spd
kts
Gust
kts
29/11:30pm 15.3 11.9 11.3 77 2.1 NW 20 32 11 17 1020.8 - 0.8
29/11:00pm 15.5 11.4 11.5 77 2.1 NW 24 33 13 18 1021.0 1021.1 0.8
29/10:30pm 15.6 12.5 11.6 77 2.2 NW 19 24 10 13 1021.2 - 0.8
29/10:00pm 15.2 12.2 10.6 74 2.4 NW 17 22 9 12 1021.2 1021.3 0.8
29/09:30pm 14.7 12.2 11.1 79 1.9 NNW 15 19 8 10 1021.2 - 0.8
29/09:00pm 14.8 12.0 11.4 80 1.8 WNW 17 24 9 13 1021.5 1021.6 0.8
29/08:30pm 14.3 12.6 12.5 89 1.0 WNW 13 19 7 10 1021.5 - 0.8
29/08:00pm 13.9 13.4 12.6 92 0.7 W 7 11 4 6 1021.7 1021.8 0.8
29/07:30pm 13.9 13.5 12.5 91 0.8 W 6 7 3 4 1021.6 - 0.8
29/07:00pm 14.0 12.7 12.4 90 0.9 WNW 11 17 6 9 1021.5 1021.6 0.8
29/06:30pm 14.2 12.1 12.4 89 1.0 NW 15 20 8 11 1021.8 - 0.6
29/06:00pm 14.3 12.8 13.1 92 0.7 WNW 13 17 7 9 1021.6 1021.7 0.6
29/05:30pm 14.4 13.7 13.1 92 0.7 NW 9 17 5 9 1021.3 - 0.6
29/05:00pm 14.6 13.0 12.8 89 1.0 WNW 13 20 7 11 1021.3 1021.4 0.6
29/04:30pm 15.4 12.9 12.4 82 1.6 NNW 17 22 9 12 1021.0 - 0.0
29/04:00pm 15.4 12.2 11.8 79 1.9 NW 20 28 11 15 1021.1 1021.2 0.0
29/03:30pm 16.4 14.1 11.8 74 2.5 NW 15 19 8 10 1020.9 - 0.0
29/03:00pm 15.8 12.7 11.6 76 2.3 NNW 19 26 10 14 1021.0 1021.1 0.0
29/02:30pm 16.4 13.6 11.4 72 2.7 NW 17 20 9 11 1021.1 - 0.0
29/02:00pm 16.6 13.1 10.9 69 3.0 NW 20 28 11 15 1021.0 1021.1 0.0
29/01:30pm 16.7 13.2 10.3 66 3.4 NW 19 24 10 13 1021.2 - 0.0
29/01:00pm 16.7 13.4 9.7 63 3.7 NW 17 24 9 13 1021.3 1021.4 0.0
29/12:30pm 17.1 13.6 8.8 58 4.3 WNW 17 22 9 12 1021.5 - 0.0
29/12:00pm 16.8 13.6 9.8 63 3.7 NW 17 24 9 13 1021.9 1022.0 0.0
29/11:30am 16.4 12.7 9.4 63 3.6 NW 19 26 10 14 1022.3 - 0.0
29/11:00am 16.5 13.9 9.4 63 3.7 NW 13 19 7 10 1022.5 1022.6 0.0
29/10:30am 16.6 14.3 9.1 61 3.9 WNW 11 17 6 9 1022.6 - 0.0
29/10:00am 16.7 14.5 9.4 62 3.8 WNW 11 19 6 10 1022.5 1022.6 0.0
29/09:30am 16.1 13.5 9.3 64 3.5 WNW 13 17 7 9 1022.2 - 0.0
29/09:00am 15.8 13.6 9.5 66 3.3 WNW 11 17 6 9 1022.0 1022.1 0.4
29/08:30am 14.9 13.3 10.1 73 2.5 NW 9 13 5 7 1022.0 - 0.4
29/08:00am 14.4 13.0 9.4 72 2.6 WNW 7 9 4 5 1021.8 1021.9 0.4
29/07:30am 14.4 13.0 9.5 72 2.5 W 7 9 4 5 1021.5 - 0.4
29/07:00am 13.7 12.0 9.8 77 2.0 NW 9 11 5 6 1021.3 1021.4 0.4
29/06:30am 13.7 12.4 10.0 78 1.9 WNW 7 9 4 5 1021.1 - 0.4
29/06:00am 13.4 12.7 10.2 81 1.7 W 4 7 2 4 1020.9 1021.0 0.4
29/05:30am 13.2 12.2 10.4 83 1.5 SSW 6 7 3 4 1020.9 - 0.4
29/05:00am 14.4 12.7 9.7 73 2.4 W 9 13 5 7 1020.7 1020.8 0.4
29/04:30am 14.5 12.8 10.0 74 2.3 W 9 13 5 7 1020.6 - 0.4
29/04:00am 14.0 12.4 11.4 84 1.4 NW 11 15 6 8 1020.7 1020.8 0.4
29/03:30am 11.7 11.5 10.3 91 0.7 WNW 2 6 1 3 1020.7 - 0.4
29/03:00am 11.4 11.0 9.7 89 0.9 S 2 6 1 3 1020.8 1020.9 0.4
29/02:30am 12.0 10.7 11.3 95 0.4 W 9 13 5 7 1020.7 - 0.4
29/02:00am 11.1 10.0 10.0 93 0.6 SW 6 7 3 4 1020.7 1020.8 0.4
29/01:30am 11.4 10.3 10.0 91 0.7 W 6 9 3 5 1020.9 - 0.4
29/01:00am 13.1 12.2 12.7 97 0.2 W 9 13 5 7 1020.9 1021.0 0.4
29/12:30am 9.0 8.6 8.1 94 0.4 CALM 0 6 0 3 1021.1 - 0.4
29/12:00am 8.8 7.0 7.8 93 0.5 NE 7 7 4 4 1021.0 1021.1 0.4
 
Date/Time
WST
Temp
°C
App
Temp
°C
Dew
Point
Rel
Hum
%
Delta-T
°C
Wind Press
QNH
hPa
Press
MSL
hPa
Rain
since 9 am
mm
Dir
 
Spd
km/h
Gust
km/h
Spd
kts
Gust
kts
28/11:30pm 8.8 8.2 7.6 92 0.6 CALM 0 0 0 0 1021.3 - 0.4
28/11:00pm 9.8 8.3 8.6 92 0.6 N 6 7 3 4 1021.3 1021.4 0.4
28/10:30pm 10.2 8.6 8.7 90 0.7 NE 7 7 4 4 1021.4 - 0.4
28/10:00pm 11.0 9.7 9.1 88 0.9 SE 6 6 3 3 1021.4 1021.5 0.4
28/09:30pm 12.1 10.8 9.1 82 1.5 WSW 6 7 3 4 1021.4 - 0.4
28/09:00pm 13.7 12.2 10.5 81 1.7 W 9 11 5 6 1021.7 1021.8 0.4
28/08:30pm 13.0 11.5 9.3 78 1.9 WNW 7 9 4 5 1021.6 - 0.2
28/08:00pm 12.9 11.0 9.0 77 2.0 NW 9 9 5 5 1021.4 1021.5 0.2
28/07:30pm 14.0 11.8 9.5 74 2.3 W 11 13 6 7 1021.4 - 0.2
28/07:00pm 14.0 11.8 9.5 74 2.3 WNW 11 13 6 7 1021.2 1021.3 0.2
28/06:30pm 13.7 11.9 9.6 76 2.1 WNW 9 11 5 6 1021.0 - 0.2
28/06:00pm 14.7 13.2 10.7 77 2.1 W 9 11 5 6 1020.7 1020.8 0.2
28/05:30pm 15.6 13.7 10.4 71 2.7 W 11 15 6 8 1020.5 - 0.2

Other Formats:

Comma delimited format used in spreadsheet applications
http://www.bom.gov.au/fwo/IDW60801/IDW60801.95611.axf

JavaScript Object Notation format (JSON) in row-major order
http://www.bom.gov.au/fwo/IDW60801/IDW60801.95611.json